Time;durP1;ratioP1;P1;durP2;ratioP2;P2;SDS_P1;SDS_P2;PMS_P1;PMS_P2;Temp;Humidity;BMP_temperature;BMP_pressure;BME280_temperature;BME280_humidity;BME280_pressure;Samples;Min_cycle;Max_cycle;Signal;HPM_P1;HPM_P2
2021/05/25 00:00:20;;;;;;;2.63;1.25;;;;;;;8.84;100.00;95398.81;1008587;29;20013;-78
2021/05/25 00:00:51;;;;;;;1.70;1.05;;;;;;;8.73;100.00;95407.19;1016253;29;20438;-78
2021/05/25 00:01:22;;;;;;;2.28;1.17;;;;;;;8.81;100.00;95430.09;1008406;29;20491;-78
2021/05/25 00:01:52;;;;;;;2.60;1.23;;;;;;;8.69;100.00;95440.31;1016290;29;20056;-79
2021/05/25 00:02:23;;;;;;;1.20;0.80;;;;;;;8.66;100.00;95432.72;1016352;29;20020;-80
2021/05/25 00:02:54;;;;;;;2.08;0.95;;;;;;;8.62;100.00;95434.06;1016216;29;20012;-79
2021/05/25 00:03:25;;;;;;;1.95;0.82;;;;;;;8.49;100.00;95426.72;1020312;29;20031;-80
2021/05/25 00:03:55;;;;;;;1.73;0.88;;;;;;;8.37;100.00;95415.66;1028687;28;20015;-79
2021/05/25 00:04:26;;;;;;;4.22;1.20;;;;;;;8.62;100.00;95458.72;1020766;29;20548;-79
2021/05/25 00:04:57;;;;;;;3.50;1.08;;;;;;;8.58;100.00;95451.28;1020108;29;20079;-79
2021/05/25 00:05:29;;;;;;;2.17;0.98;;;;;;;8.43;100.00;95443.28;1024038;29;20020;-78
2021/05/25 00:06:00;;;;;;;1.95;1.10;;;;;;;8.53;100.00;95456.28;1012320;29;20039;-80
2021/05/25 00:06:30;;;;;;;1.92;0.80;;;;;;;8.52;100.00;95458.13;1020390;29;20377;-79
2021/05/25 00:07:01;;;;;;;1.50;0.80;;;;;;;8.36;100.00;95437.84;1016429;29;20024;-79
2021/05/25 00:07:32;;;;;;;3.28;1.02;;;;;;;8.21;100.00;95423.72;1012423;29;20028;-77
2021/05/25 00:08:02;;;;;;;2.45;0.85;;;;;;;8.35;100.00;95451.25;1012492;29;20036;-80
2021/05/25 00:08:33;;;;;;;2.10;0.90;;;;;;;8.40;100.00;95470.91;1008673;29;20403;-79
2021/05/25 00:09:04;;;;;;;2.05;1.08;;;;;;;8.27;100.00;95454.75;1013070;29;20028;-78
2021/05/25 00:09:35;;;;;;;2.63;0.80;;;;;;;8.30;100.00;95470.28;1009450;29;20052;-79
2021/05/25 00:10:07;;;;;;;2.63;1.08;;;;;;;8.27;100.00;95475.91;1013043;29;20048;-78
2021/05/25 00:10:37;;;;;;;2.25;1.00;;;;;;;8.06;100.00;95439.50;1009215;29;20025;-79
2021/05/25 00:11:08;;;;;;;1.40;0.82;;;;;;;8.25;100.00;95470.78;1024494;29;20027;-80
2021/05/25 00:11:39;;;;;;;2.60;1.10;;;;;;;8.21;100.00;95460.75;1012980;29;20024;-80
2021/05/25 00:12:10;;;;;;;3.28;1.00;;;;;;;8.26;100.00;95479.56;1017023;29;20026;-79
2021/05/25 00:12:40;;;;;;;2.55;1.17;;;;;;;8.25;100.00;95462.03;1025284;29;20067;-80
2021/05/25 00:13:11;;;;;;;2.63;0.93;;;;;;;8.30;100.00;95475.56;1020610;29;20118;-79
2021/05/25 00:13:42;;;;;;;4.47;1.10;;;;;;;8.18;100.00;95463.75;1016590;29;20025;-79
2021/05/25 00:14:17;;;;;;;2.10;1.00;;;;;;;8.28;100.00;95477.56;1016584;29;20394;-79
2021/05/25 00:14:48;;;;;;;3.33;1.45;;;;;;;7.71;100.00;95391.41;1016891;29;20466;-80
2021/05/25 00:15:21;;;;;;;2.17;1.02;;;;;;;8.12;100.00;95442.28;1013037;29;20025;-79
2021/05/25 00:15:54;;;;;;;2.10;0.90;;;;;;;8.10;100.00;95451.38;1016825;29;20076;-79
2021/05/25 00:16:25;;;;;;;1.70;1.00;;;;;;;8.24;100.00;95482.38;1009099;29;20021;-80
2021/05/25 00:16:57;;;;;;;1.33;0.80;;;;;;;7.97;100.00;95435.25;1012746;29;20173;-80
2021/05/25 00:17:27;;;;;;;1.50;0.88;;;;;;;8.22;100.00;95467.69;1016566;29;20513;-79
2021/05/25 00:17:58;;;;;;;1.40;0.82;;;;;;;8.21;100.00;95473.97;1016195;29;20024;-79
2021/05/25 00:18:28;;;;;;;1.48;0.90;;;;;;;8.25;100.00;95488.50;1016714;29;20031;-81
2021/05/25 00:18:59;;;;;;;2.83;1.13;;;;;;;8.21;100.00;95476.63;1016633;29;20038;-79
2021/05/25 00:19:30;;;;;;;2.25;0.90;;;;;;;8.18;100.00;95484.91;1005153;29;20026;-80
2021/05/25 00:20:00;;;;;;;2.30;0.70;;;;;;;8.20;100.00;95475.78;1012739;29;20485;-79
2021/05/25 00:20:31;;;;;;;1.52;0.90;;;;;;;8.07;100.00;95452.53;1016796;29;20024;-79
2021/05/25 00:21:02;;;;;;;2.95;1.10;;;;;;;8.20;100.00;95469.69;1012919;29;20386;-80
2021/05/25 00:21:32;;;;;;;2.50;1.20;;;;;;;8.12;100.00;95466.06;1020836;29;20182;-80
2021/05/25 00:22:03;;;;;;;1.73;0.80;;;;;;;8.15;100.00;95472.84;1008853;29;20028;-79
2021/05/25 00:22:34;;;;;;;1.98;0.88;;;;;;;8.26;100.00;95492.81;1020902;29;20071;-79
2021/05/25 00:23:04;;;;;;;3.88;0.93;;;;;;;8.23;100.00;95480.72;1016683;29;20029;-79
2021/05/25 00:23:35;;;;;;;5.28;1.02;;;;;;;8.07;100.00;95460.47;1024389;28;20031;-79
2021/05/25 00:24:06;;;;;;;2.30;1.00;;;;;;;8.11;100.00;95474.19;1016883;29;20028;-79
2021/05/25 00:24:37;;;;;;;1.95;1.08;;;;;;;8.11;100.00;95467.06;1024983;29;20023;-79
2021/05/25 00:25:09;;;;;;;3.22;0.82;;;;;;;8.01;100.00;95455.91;1013487;29;20391;-80
2021/05/25 00:25:39;;;;;;;1.63;1.00;;;;;;;8.27;100.00;95486.50;1017305;29;20526;-80
2021/05/25 00:26:10;;;;;;;2.88;0.80;;;;;;;8.17;100.00;95485.88;1017181;29;20032;-78
2021/05/25 00:26:41;;;;;;;2.10;0.93;;;;;;;7.96;100.00;95442.38;1021268;28;20051;-78
2021/05/25 00:27:12;;;;;;;2.63;0.93;;;;;;;8.10;100.00;95459.31;1017460;29;20028;-79
2021/05/25 00:27:43;;;;;;;2.05;0.90;;;;;;;8.07;100.00;95467.59;1025168;29;20102;-78
2021/05/25 00:28:13;;;;;;;1.95;1.00;;;;;;;8.25;100.00;95488.50;1021196;29;20094;-79
2021/05/25 00:28:44;;;;;;;2.40;1.10;;;;;;;8.19;100.00;95482.09;1013469;29;20033;-79
2021/05/25 00:29:14;;;;;;;2.78;0.90;;;;;;;8.26;100.00;95484.88;1013781;29;20059;-79
2021/05/25 00:29:45;;;;;;;1.55;0.90;;;;;;;8.15;100.00;95458.78;1014107;29;20107;-79
2021/05/25 00:30:18;;;;;;;2.38;1.08;;;;;;;8.12;100.00;95467.91;1013503;29;20080;-79
2021/05/25 00:30:49;;;;;;;1.75;1.08;;;;;;;8.20;100.00;95478.41;1013596;29;20029;-78
2021/05/25 00:31:19;;;;;;;2.22;0.93;;;;;;;8.20;100.00;95474.97;1025500;29;20034;-78
2021/05/25 00:31:50;;;;;;;2.97;1.30;;;;;;;8.14;100.00;95471.19;1021759;29;20043;-78
2021/05/25 00:32:21;;;;;;;2.63;1.00;;;;;;;8.00;100.00;95456.06;1021582;29;20091;-77
2021/05/25 00:32:52;;;;;;;2.70;1.10;;;;;;;8.16;100.00;95476.31;1021644;29;20416;-77
2021/05/25 00:33:22;;;;;;;2.88;1.10;;;;;;;8.11;100.00;95467.06;1021331;29;20482;-79
2021/05/25 00:33:53;;;;;;;3.28;1.10;;;;;;;8.20;100.00;95486.34;1017424;29;20024;-79
2021/05/25 00:34:23;;;;;;;3.05;1.17;;;;;;;8.24;100.00;95476.28;1017514;29;20484;-78
2021/05/25 00:34:54;;;;;;;1.92;0.88;;;;;;;7.91;100.00;95439.41;1017524;29;20020;-79
2021/05/25 00:35:26;;;;;;;1.52;0.90;;;;;;;8.17;100.00;95478.78;1021192;29;20034;-80
2021/05/25 00:35:58;;;;;;;3.75;1.02;;;;;;;8.15;100.00;95482.59;1005719;29;20025;-79
2021/05/25 00:36:29;;;;;;;1.55;1.00;;;;;;;8.17;100.00;95478.78;1021179;29;20019;-79
2021/05/25 00:36:59;;;;;;;2.65;1.00;;;;;;;8.19;100.00;95487.38;1013156;29;20028;-78
2021/05/25 00:37:30;;;;;;;1.73;0.80;;;;;;;8.12;100.00;95478.47;1021141;28;20028;-78
2021/05/25 00:38:01;;;;;;;3.85;0.98;;;;;;;8.18;100.00;95476.97;1016988;29;20031;-79
2021/05/25 00:38:32;;;;;;;1.83;1.00;;;;;;;8.20;100.00;95485.53;1013615;29;20507;-79
2021/05/25 00:39:06;;;;;;;1.58;0.90;;;;;;;7.99;100.00;95455.22;1021111;28;20024;-78
2021/05/25 00:39:37;;;;;;;3.30;1.05;;;;;;;8.20;100.00;95474.97;1013880;29;20118;-78
2021/05/25 00:40:08;;;;;;;2.13;1.00;;;;;;;8.13;100.00;95477.47;1025763;29;20440;-78
2021/05/25 00:40:39;;;;;;;1.85;1.00;;;;;;;8.12;100.00;95460.78;1013785;29;20032;-78
2021/05/25 00:41:10;;;;;;;2.53;1.20;;;;;;;8.21;100.00;95481.91;1017297;29;20043;-78
2021/05/25 00:41:40;;;;;;;2.70;0.90;;;;;;;8.14;100.00;95471.19;1013406;29;20439;-78
2021/05/25 00:42:11;;;;;;;3.47;1.05;;;;;;;8.06;100.00;95453.56;1021374;29;20127;-78
2021/05/25 00:42:43;;;;;;;2.88;1.23;;;;;;;8.19;100.00;95483.91;1013212;29;20029;-78
2021/05/25 00:43:13;;;;;;;1.52;0.88;;;;;;;8.11;100.00;95460.97;1017599;29;20024;-79
2021/05/25 00:43:44;;;;;;;2.13;0.98;;;;;;;8.12;100.00;95463.44;1021605;29;20032;-78
2021/05/25 00:44:14;;;;;;;2.17;0.80;;;;;;;8.15;100.00;95466.72;1017667;29;20035;-79
2021/05/25 00:44:45;;;;;;;1.60;0.93;;;;;;;8.20;100.00;95486.34;1029346;28;20085;-78
2021/05/25 00:45:16;;;;;;;2.88;1.02;;;;;;;8.18;100.00;95476.97;1017447;29;20038;-79
2021/05/25 00:45:47;;;;;;;2.38;1.10;;;;;;;8.18;100.00;95477.78;1010207;29;20427;-79
2021/05/25 00:46:17;;;;;;;2.20;0.90;;;;;;;8.21;100.00;95492.50;1021455;29;20034;-78
2021/05/25 00:46:48;;;;;;;3.42;1.38;;;;;;;8.22;100.00;95489.69;1009582;29;20570;-78
2021/05/25 00:47:29;;;;;;;1.67;0.82;;;;;;;8.20;100.00;95480.25;1025351;29;20023;-78
2021/05/25 00:47:59;;;;;;;2.13;1.00;;;;;;;7.98;100.00;95464.16;1017439;29;20031;-78
2021/05/25 00:48:30;;;;;;;3.22;1.20;;;;;;;8.09;100.00;95469.06;1017444;29;20032;-78
2021/05/25 00:49:01;;;;;;;3.30;0.95;;;;;;;8.15;100.00;95479.94;1013446;29;20036;-78
2021/05/25 00:49:32;;;;;;;1.80;0.95;;;;;;;8.24;100.00;95492.97;1025205;29;20023;-77
2021/05/25 00:50:13;;;;;;;3.45;1.10;;;;;;;8.15;100.00;95474.66;1013525;29;20072;-77
2021/05/25 00:50:44;;;;;;;2.15;0.98;;;;;;;8.30;100.00;95484.31;1025401;29;20031;-77
2021/05/25 00:51:15;;;;;;;2.28;1.10;;;;;;;8.24;100.00;95486.88;1017892;29;20039;-79
2021/05/25 00:51:45;;;;;;;1.98;0.85;;;;;;;8.17;100.00;95496.47;1013411;29;20033;-78
2021/05/25 00:52:16;;;;;;;2.15;0.90;;;;;;;8.17;100.00;95492.03;1025196;29;20488;-78
2021/05/25 00:52:49;;;;;;;1.45;0.80;;;;;;;8.24;100.00;95492.16;1013940;29;20028;-77
2021/05/25 00:53:19;;;;;;;1.77;0.77;;;;;;;8.19;100.00;95497.13;1021606;29;20051;-77
2021/05/25 00:53:50;;;;;;;3.58;1.13;;;;;;;8.12;100.00;95492.53;1017564;29;20438;-78
2021/05/25 00:54:21;;;;;;;2.88;1.25;;;;;;;8.17;100.00;95496.47;1025013;28;20031;-78
2021/05/25 00:54:51;;;;;;;2.47;1.10;;;;;;;8.14;100.00;95495.00;1017198;29;20035;-77
2021/05/25 00:55:34;;;;;;;4.55;1.23;;;;;;;7.96;100.00;95474.09;1024869;29;20034;-78
2021/05/25 00:56:04;;;;;;;1.02;0.70;;;;;;;8.02;100.00;95483.97;1021082;29;20445;-77
2021/05/25 00:56:35;;;;;;;2.50;1.00;;;;;;;8.01;100.00;95490.28;1021170;29;20051;-78
2021/05/25 00:57:06;;;;;;;2.55;1.08;;;;;;;7.97;100.00;95486.31;1017767;29;20031;-78
2021/05/25 00:57:36;;;;;;;3.17;1.40;;;;;;;7.97;100.00;95472.25;1017722;29;20039;-78
2021/05/25 00:58:09;;;;;;;2.40;0.95;;;;;;;8.04;100.00;95492.56;1013283;29;20039;-78
2021/05/25 00:58:39;;;;;;;3.15;1.20;;;;;;;8.06;100.00;95490.59;1017846;29;20035;-78
2021/05/25 00:59:10;;;;;;;3.00;1.25;;;;;;;8.11;100.00;95498.78;1013557;29;20032;-78
2021/05/25 00:59:41;;;;;;;2.40;1.05;;;;;;;8.17;100.00;95492.03;1017281;29;20038;-78
2021/05/25 01:00:12;;;;;;;3.33;1.10;;;;;;;7.97;100.00;95461.69;1013715;29;20087;-78
2021/05/25 01:00:44;;;;;;;1.90;1.17;;;;;;;7.97;100.00;95457.22;1025186;29;20019;-78
2021/05/25 01:01:15;;;;;;;1.70;0.90;;;;;;;8.07;100.00;95476.34;1013333;29;20029;-78
2021/05/25 01:01:45;;;;;;;2.70;0.90;;;;;;;8.12;100.00;95481.94;1025369;29;20791;-78
2021/05/25 01:02:16;;;;;;;2.90;1.10;;;;;;;7.98;100.00;95460.72;1017288;29;20454;-77
2021/05/25 01:02:47;;;;;;;2.55;0.90;;;;;;;8.11;100.00;95482.13;1013611;29;20029;-79
2021/05/25 01:03:19;;;;;;;1.42;0.80;;;;;;;7.87;100.00;95461.88;1017208;29;20532;-78
2021/05/25 01:03:49;;;;;;;6.97;1.20;;;;;;;7.91;100.00;95460.56;1017560;29;20025;-78
2021/05/25 01:04:20;;;;;;;1.77;1.05;;;;;;;8.02;100.00;95478.69;1013849;29;20024;-78
2021/05/25 01:04:51;;;;;;;2.72;1.02;;;;;;;8.11;100.00;95490.03;1010126;29;20510;-77
2021/05/25 01:05:21;;;;;;;2.90;1.00;;;;;;;8.04;100.00;95484.63;1021832;29;20034;-78
2021/05/25 01:05:52;;;;;;;3.70;0.90;;;;;;;8.07;100.00;95484.28;1021190;28;20023;-78
2021/05/25 01:06:23;;;;;;;1.77;0.90;;;;;;;7.99;100.00;95472.91;1025223;28;20024;-78
2021/05/25 01:06:53;;;;;;;2.45;1.00;;;;;;;8.10;100.00;95488.41;1017104;29;20024;-77
2021/05/25 01:07:24;;;;;;;3.65;0.98;;;;;;;7.99;100.00;95486.94;1025516;29;20019;-78
2021/05/25 01:07:55;;;;;;;1.38;0.80;;;;;;;7.93;100.00;95461.22;1021103;29;20497;-78
2021/05/25 01:08:26;;;;;;;2.55;1.20;;;;;;;7.94;100.00;95465.47;1021099;29;20437;-78
2021/05/25 01:09:00;;;;;;;3.28;1.25;;;;;;;8.00;100.00;95488.59;1017430;29;20020;-79
2021/05/25 01:09:33;;;;;;;2.58;0.93;;;;;;;7.83;100.00;95461.41;1013716;29;20031;-78
2021/05/25 01:10:05;;;;;;;2.63;1.00;;;;;;;8.04;100.00;95489.09;1017924;29;20025;-79
2021/05/25 01:10:41;;;;;;;3.25;1.00;;;;;;;8.04;100.00;95481.16;1025455;29;20507;-79
2021/05/25 01:11:14;;;;;;;3.03;1.00;;;;;;;8.04;100.00;95487.25;1017800;29;20016;-80
2021/05/25 01:11:45;;;;;;;1.60;0.80;;;;;;;8.07;100.00;95481.63;1017666;29;20031;-80
2021/05/25 01:12:16;;;;;;;3.47;0.90;;;;;;;7.93;100.00;95455.91;1009765;29;20387;-78
2021/05/25 01:12:54;;;;;;;1.83;0.80;;;;;;;8.10;100.00;95475.19;1017732;29;20020;-79
2021/05/25 01:13:27;;;;;;;2.63;0.80;;;;;;;8.12;100.00;95474.00;1013723;29;20060;-79
2021/05/25 01:13:59;;;;;;;2.67;0.70;;;;;;;8.06;100.00;95466.78;1017453;29;20017;-79
2021/05/25 01:14:37;;;;;;;1.63;0.80;;;;;;;8.12;100.00;95466.06;1013828;29;20021;-79
2021/05/25 01:15:10;;;;;;;5.32;1.20;;;;;;;8.11;100.00;95456.47;1009870;29;20021;-78
2021/05/25 01:15:41;;;;;;;1.60;0.80;;;;;;;8.17;100.00;95475.31;1017577;29;20425;-79
2021/05/25 01:16:13;;;;;;;2.85;0.88;;;;;;;8.11;100.00;95467.06;1014448;29;20029;-78
2021/05/25 01:16:44;;;;;;;2.03;0.90;;;;;;;8.03;100.00;95448.59;1021403;29;20031;-78
2021/05/25 01:17:14;;;;;;;1.55;0.90;;;;;;;8.11;100.00;95468.88;1022045;29;20019;-78
2021/05/25 01:17:45;;;;;;;2.22;1.20;;;;;;;8.10;100.00;95468.06;1017877;29;20028;-77
2021/05/25 01:18:16;;;;;;;1.70;0.82;;;;;;;7.98;100.00;95443.00;1018571;29;20121;-78
2021/05/25 01:18:47;;;;;;;2.60;0.95;;;;;;;8.07;100.00;95460.47;1025408;29;20012;-77
2021/05/25 01:19:17;;;;;;;2.33;1.10;;;;;;;8.10;100.00;95462.78;1025489;29;20007;-76
2021/05/25 01:19:48;;;;;;;3.30;1.02;;;;;;;8.09;100.00;95458.47;1025310;29;20079;-77
2021/05/25 01:20:20;;;;;;;4.45;1.08;;;;;;;8.08;100.00;95463.94;1029488;29;20056;-78
2021/05/25 01:20:51;;;;;;;3.15;0.82;;;;;;;8.08;100.00;95456.84;1025297;29;20019;-77
2021/05/25 01:21:22;;;;;;;3.35;1.10;;;;;;;8.07;100.00;95465.75;1019139;29;20123;-79
2021/05/25 01:21:52;;;;;;;3.70;0.85;;;;;;;8.06;100.00;95464.13;1025589;29;20544;-77
2021/05/25 01:22:23;;;;;;;5.03;1.10;;;;;;;8.10;100.00;95464.63;1018002;29;20880;-79
2021/05/25 01:22:53;;;;;;;3.22;0.90;;;;;;;7.93;100.00;95443.50;1021307;29;20016;-79
2021/05/25 01:23:24;;;;;;;3.63;1.00;;;;;;;8.09;100.00;95463.78;1009771;29;20025;-79
2021/05/25 01:23:55;;;;;;;2.53;1.08;;;;;;;8.17;100.00;95462.94;1017764;29;20136;-78
2021/05/25 01:24:30;;;;;;;1.38;0.90;;;;;;;7.94;100.00;95439.03;1013578;29;20028;-79
2021/05/25 01:25:08;;;;;;;4.38;0.82;;;;;;;8.10;100.00;95472.53;1021514;29;20023;-78
2021/05/25 01:25:44;;;;;;;2.15;0.90;;;;;;;8.11;100.00;95482.13;1017429;29;20024;-79
2021/05/25 01:26:16;;;;;;;3.17;1.00;;;;;;;8.09;100.00;95477.00;1016926;29;20032;-78
2021/05/25 01:26:47;;;;;;;2.10;1.05;;;;;;;8.10;100.00;95472.53;1009381;29;20037;-79
2021/05/25 01:27:17;;;;;;;3.53;1.00;;;;;;;7.96;100.00;95452.94;1017423;29;20102;-79
2021/05/25 01:27:56;;;;;;;3.95;1.00;;;;;;;8.12;100.00;95486.41;1009643;29;20037;-79
2021/05/25 01:28:27;;;;;;;4.30;0.90;;;;;;;8.05;100.00;95478.34;1021365;29;20413;-78
2021/05/25 01:28:57;;;;;;;3.30;1.05;;;;;;;8.10;100.00;95472.53;1021423;29;20031;-79
2021/05/25 01:29:28;;;;;;;1.63;0.88;;;;;;;8.11;100.00;95475.00;1013825;29;20033;-79
2021/05/25 01:29:59;;;;;;;1.38;0.57;;;;;;;8.15;100.00;95472.00;1021878;29;20031;-78
2021/05/25 01:30:33;;;;;;;1.80;0.73;;;;;;;8.10;100.00;95451.38;1013537;29;20020;-79
2021/05/25 01:31:05;;;;;;;2.83;1.00;;;;;;;8.21;100.00;95468.69;1026018;29;20099;-78
2021/05/25 01:31:36;;;;;;;1.77;0.70;;;;;;;7.99;100.00;95439.34;1013929;29;20128;-79
2021/05/25 01:32:06;;;;;;;2.33;0.90;;;;;;;8.21;100.00;95460.75;1021146;29;20028;-78
2021/05/25 01:32:37;;;;;;;2.40;0.82;;;;;;;8.18;100.00;95455.81;1014034;29;20107;-78
2021/05/25 01:33:08;;;;;;;3.15;0.85;;;;;;;8.14;100.00;95457.16;1022176;29;20438;-78
2021/05/25 01:33:39;;;;;;;2.90;0.90;;;;;;;8.10;100.00;95454.84;1021896;29;20028;-78
2021/05/25 01:34:10;;;;;;;1.38;0.85;;;;;;;8.08;100.00;95454.19;1014003;29;20059;-78
2021/05/25 01:34:40;;;;;;;3.13;0.85;;;;;;;8.15;100.00;95472.00;1017278;29;20450;-78
2021/05/25 01:35:11;;;;;;;3.50;0.80;;;;;;;8.10;100.00;95460.13;1016870;29;20028;-78
2021/05/25 01:35:42;;;;;;;2.33;0.80;;;;;;;8.11;100.00;95464.41;1025410;29;20027;-78
2021/05/25 01:36:14;;;;;;;2.75;1.10;;;;;;;8.06;100.00;95464.13;1017200;29;20056;-78
2021/05/25 01:36:45;;;;;;;1.77;0.85;;;;;;;7.95;100.00;95443.34;1013181;29;20438;-77
2021/05/25 01:37:16;;;;;;;1.05;0.70;;;;;;;8.10;100.00;95457.50;1016975;29;20060;-78
2021/05/25 01:37:47;;;;;;;3.92;0.80;;;;;;;8.20;100.00;95480.25;1009390;29;20029;-78
2021/05/25 01:38:17;;;;;;;2.67;0.80;;;;;;;8.20;100.00;95469.69;1009124;29;20028;-77
2021/05/25 01:38:48;;;;;;;1.33;0.60;;;;;;;8.15;100.00;95475.50;1008787;29;20038;-78
2021/05/25 01:39:19;;;;;;;4.00;1.10;;;;;;;8.23;100.00;95469.34;1020514;29;20505;-78
2021/05/25 01:39:53;;;;;;;2.40;0.75;;;;;;;8.26;100.00;95480.38;1020508;28;20497;-78
2021/05/25 01:40:24;;;;;;;1.38;0.70;;;;;;;8.19;100.00;95483.91;1005046;29;20057;-78
2021/05/25 01:40:56;;;;;;;3.90;1.00;;;;;;;8.09;100.00;95470.88;1008799;29;20032;-78
2021/05/25 01:41:26;;;;;;;2.63;0.88;;;;;;;8.11;100.00;95460.97;1028452;28;20760;-78
2021/05/25 01:41:57;;;;;;;2.58;1.20;;;;;;;8.18;100.00;95479.59;1012586;29;20028;-77
2021/05/25 01:42:32;;;;;;;3.20;0.70;;;;;;;8.13;100.00;95458.97;1020836;29;20028;-79
2021/05/25 01:43:03;;;;;;;1.67;0.68;;;;;;;8.27;100.00;95471.47;1008677;29;20033;-78
2021/05/25 01:43:33;;;;;;;2.92;1.15;;;;;;;8.25;100.00;95468.16;1024223;29;20035;-77
2021/05/25 01:44:04;;;;;;;2.40;0.80;;;;;;;8.13;100.00;95469.53;1024632;29;20106;-78
2021/05/25 01:44:36;;;;;;;3.25;0.80;;;;;;;8.20;100.00;95482.91;1012630;29;20060;-78
2021/05/25 01:45:08;;;;;;;3.53;0.70;;;;;;;8.17;100.00;95477.94;1020174;29;20024;-78
2021/05/25 01:45:39;;;;;;;2.50;0.70;;;;;;;8.01;100.00;95460.34;1020473;29;20031;-78
2021/05/25 01:46:09;;;;;;;3.38;0.80;;;;;;;7.99;100.00;95454.41;1016809;29;20032;-78
2021/05/25 01:46:44;;;;;;;2.53;0.73;;;;;;;8.18;100.00;95491.00;1020779;29;20030;-77
2021/05/25 01:47:17;;;;;;;2.17;0.70;;;;;;;8.02;100.00;95462.00;1012667;29;20017;-77
2021/05/25 01:47:47;;;;;;;1.48;0.68;;;;;;;8.01;100.00;95457.69;1016579;29;20036;-78
2021/05/25 01:48:18;;;;;;;4.55;0.80;;;;;;;8.11;100.00;95477.63;1012569;29;20029;-78
2021/05/25 01:48:49;;;;;;;2.53;0.80;;;;;;;8.14;100.00;95486.25;1020408;29;20023;-78
2021/05/25 01:49:20;;;;;;;4.10;1.00;;;;;;;8.17;100.00;95485.88;1012497;29;20025;-78
2021/05/25 01:49:50;;;;;;;2.13;0.70;;;;;;;8.12;100.00;95491.72;1008901;29;20089;-78
2021/05/25 01:50:22;;;;;;;3.65;0.95;;;;;;;8.16;100.00;95486.91;1012668;29;20024;-78
2021/05/25 01:50:52;;;;;;;3.80;0.80;;;;;;;8.19;100.00;95494.50;1020449;29;20079;-78
2021/05/25 01:51:23;;;;;;;2.67;0.80;;;;;;;8.09;100.00;95484.94;1020686;29;20465;-79
2021/05/25 01:51:53;;;;;;;5.45;1.20;;;;;;;8.13;100.00;95493.34;1020567;29;20421;-79
2021/05/25 01:52:24;;;;;;;1.30;0.70;;;;;;;8.17;100.00;95485.88;1009295;29;20479;-79
2021/05/25 01:52:58;;;;;;;3.33;0.85;;;;;;;8.05;100.00;95478.34;1016898;29;20035;-79
2021/05/25 01:53:29;;;;;;;1.88;0.60;;;;;;;8.13;100.00;95495.97;1020499;29;20145;-79
2021/05/25 01:54:00;;;;;;;2.05;0.68;;;;;;;8.16;100.00;95493.00;1012713;29;20154;-79
2021/05/25 01:54:30;;;;;;;3.83;1.00;;;;;;;8.07;100.00;95479.00;1016836;29;20016;-78
2021/05/25 01:55:01;;;;;;;2.53;0.75;;;;;;;8.03;100.00;95466.28;1016535;29;20127;-79
2021/05/25 01:55:43;;;;;;;2.22;0.77;;;;;;;8.20;100.00;95491.66;1020424;29;20027;-78
2021/05/25 01:56:16;;;;;;;1.90;0.63;;;;;;;8.25;100.00;95494.59;1016522;29;20079;-78
2021/05/25 01:56:46;;;;;;;2.60;0.85;;;;;;;8.16;100.00;95478.97;1020576;29;20020;-78
2021/05/25 01:57:17;;;;;;;2.00;0.70;;;;;;;8.25;100.00;95499.06;1012833;29;20032;-79
2021/05/25 01:57:48;;;;;;;2.03;0.90;;;;;;;8.21;100.00;95488.03;1016505;29;20023;-79
2021/05/25 01:58:22;;;;;;;1.75;0.73;;;;;;;8.30;100.00;95494.09;1020473;29;20016;-79
2021/05/25 01:58:53;;;;;;;4.47;0.85;;;;;;;8.12;100.00;95452.84;1008798;29;20024;-79
2021/05/25 01:59:24;;;;;;;5.28;0.88;;;;;;;8.10;100.00;95454.84;1016661;29;20053;-79
2021/05/25 01:59:54;;;;;;;3.55;0.70;;;;;;;8.38;100.00;95483.47;1012613;29;20427;-79
2021/05/25 02:00:25;;;;;;;2.10;1.05;;;;;;;8.33;100.00;95477.88;1004987;29;20448;-79
2021/05/25 02:01:00;;;;;;;2.20;0.90;;;;;;;8.37;100.00;95487.09;1012633;29;20498;-79
2021/05/25 02:01:30;;;;;;;4.15;0.90;;;;;;;8.37;100.00;95481.00;1012867;29;20024;-79
2021/05/25 02:02:01;;;;;;;2.85;0.73;;;;;;;8.35;100.00;95480.34;1008708;29;20036;-79
2021/05/25 02:02:32;;;;;;;3.45;1.00;;;;;;;8.23;100.00;95479.91;1012732;29;20573;-79
2021/05/25 02:03:03;;;;;;;3.75;0.88;;;;;;;8.15;100.00;95472.84;1016735;29;20502;-79
2021/05/25 02:03:34;;;;;;;4.07;1.05;;;;;;;8.15;100.00;95477.31;1008826;29;20471;-78
2021/05/25 02:04:04;;;;;;;3.67;1.35;;;;;;;8.17;100.00;95488.53;1016441;29;20016;-79
2021/05/25 02:04:35;;;;;;;4.93;1.05;;;;;;;8.02;100.00;95462.00;1012530;29;20560;-78
2021/05/25 02:05:06;;;;;;;3.35;0.80;;;;;;;8.27;100.00;95492.63;1016674;29;20028;-78
2021/05/25 02:05:37;;;;;;;1.88;0.70;;;;;;;8.27;100.00;95499.72;1016513;29;20134;-78
2021/05/25 02:06:09;;;;;;;3.80;0.82;;;;;;;8.20;100.00;95493.47;1016390;29;20146;-79
2021/05/25 02:06:39;;;;;;;4.03;0.77;;;;;;;8.11;100.00;95482.94;1012360;29;20012;-79
2021/05/25 02:07:10;;;;;;;5.95;1.10;;;;;;;8.17;100.00;95491.16;1016400;29;20020;-79
2021/05/25 02:07:48;;;;;;;3.40;1.40;;;;;;;8.29;100.00;95501.22;1016861;29;20035;-79
2021/05/25 02:08:19;;;;;;;1.83;0.70;;;;;;;8.27;100.00;95497.06;1012482;29;20107;-78
2021/05/25 02:08:50;;;;;;;2.35;0.60;;;;;;;8.10;100.00;95470.72;1008709;29;20029;-79
2021/05/25 02:09:20;;;;;;;3.03;0.88;;;;;;;8.14;100.00;95463.25;1012602;29;20035;-79
2021/05/25 02:09:51;;;;;;;2.45;1.05;;;;;;;8.34;100.00;95498.03;1016505;29;20098;-79
2021/05/25 02:10:26;;;;;;;1.65;0.70;;;;;;;8.36;100.00;95492.56;1016624;29;20028;-79
2021/05/25 02:10:59;;;;;;;2.15;1.00;;;;;;;8.33;100.00;95485.00;1020444;28;20119;-78
2021/05/25 02:11:30;;;;;;;1.77;0.63;;;;;;;8.34;100.00;95491.94;1016621;29;20219;-78
2021/05/25 02:12:01;;;;;;;2.50;0.95;;;;;;;8.20;100.00;95459.91;1024572;29;20148;-78
2021/05/25 02:12:32;;;;;;;2.67;1.10;;;;;;;8.33;100.00;95482.34;1016466;29;20412;-78
2021/05/25 02:13:04;;;;;;;2.80;0.80;;;;;;;8.28;100.00;95470.47;1024414;29;20031;-78
2021/05/25 02:13:37;;;;;;;2.30;0.65;;;;;;;8.39;100.00;95486.94;1016474;29;20126;-78
2021/05/25 02:14:08;;;;;;;1.58;0.60;;;;;;;8.42;100.00;95486.59;1028267;28;20019;-78
2021/05/25 02:14:38;;;;;;;4.45;0.85;;;;;;;8.27;100.00;95471.47;1012778;29;20029;-79
2021/05/25 02:15:10;;;;;;;2.72;0.88;;;;;;;8.36;100.00;95501.34;1024365;29;20066;-78
2021/05/25 02:15:41;;;;;;;5.60;1.17;;;;;;;8.29;100.00;95487.19;1008785;29;20136;-77
2021/05/25 02:16:13;;;;;;;2.47;0.60;;;;;;;8.22;100.00;95480.91;1020214;29;20038;-78
2021/05/25 02:16:44;;;;;;;5.15;1.00;;;;;;;8.29;100.00;95495.09;1016462;29;20020;-77
2021/05/25 02:17:15;;;;;;;4.18;1.58;;;;;;;8.36;100.00;95506.66;1016651;29;20034;-78
2021/05/25 02:17:45;;;;;;;3.80;1.27;;;;;;;8.30;100.00;95494.09;1020726;29;20020;-78
2021/05/25 02:18:18;;;;;;;3.00;0.75;;;;;;;8.07;100.00;95489.56;1020457;29;20024;-78
2021/05/25 02:18:48;;;;;;;6.00;1.05;;;;;;;8.13;100.00;95498.63;1020788;29;20110;-78
2021/05/25 02:19:19;;;;;;;5.38;1.33;;;;;;;8.22;100.00;95504.72;1016556;29;20032;-79
2021/05/25 02:19:49;;;;;;;2.97;0.90;;;;;;;8.17;100.00;95517.63;1012684;29;20029;-78
2021/05/25 02:20:20;;;;;;;2.88;0.80;;;;;;;8.14;100.00;95504.75;1016606;29;20028;-78
2021/05/25 02:20:53;;;;;;;3.42;1.40;;;;;;;7.97;100.00;95481.00;1016557;29;20035;-78
2021/05/25 02:21:24;;;;;;;2.67;0.73;;;;;;;8.21;100.00;95516.31;1016761;29;20024;-78
2021/05/25 02:21:54;;;;;;;3.95;1.30;;;;;;;7.88;100.00;95474.13;1009082;29;20046;-78
2021/05/25 02:22:25;;;;;;;4.50;1.45;;;;;;;8.19;100.00;95521.75;1023322;29;20039;-78
2021/05/25 02:22:56;;;;;;;5.75;1.00;;;;;;;8.12;100.00;95518.16;1012802;29;20037;-78
2021/05/25 02:23:27;;;;;;;3.35;0.90;;;;;;;8.11;100.00;95522.59;1024282;29;20023;-78
2021/05/25 02:23:58;;;;;;;3.53;0.90;;;;;;;8.00;100.00;95499.19;1024739;29;20054;-78
2021/05/25 02:24:29;;;;;;;2.58;0.70;;;;;;;8.08;100.00;95508.91;1020869;29;20103;-78
2021/05/25 02:24:59;;;;;;;3.67;0.93;;;;;;;8.08;100.00;95499.16;1028075;29;20019;-78
2021/05/25 02:25:30;;;;;;;2.47;0.70;;;;;;;8.08;100.00;95511.53;1016584;29;20076;-79
2021/05/25 02:26:01;;;;;;;2.97;1.00;;;;;;;8.12;100.00;95504.94;1020141;29;20027;-79
2021/05/25 02:26:31;;;;;;;5.03;1.00;;;;;;;8.20;100.00;95517.28;1024402;29;20012;-79
2021/05/25 02:27:02;;;;;;;4.30;1.60;;;;;;;8.11;100.00;95506.72;1021355;29;20032;-78
2021/05/25 02:27:33;;;;;;;4.47;0.77;;;;;;;8.15;100.00;95519.63;1020758;29;20070;-78
2021/05/25 02:28:04;;;;;;;4.20;0.70;;;;;;;8.06;100.00;95498.50;1020558;29;20030;-77